Pagrindinis puslapis
METAR-TAF:

METAR-TAF

Oro uostai :

Ki Vestas, Florida, Jungtinės Amerikos Valstijos

platuma: 24-33-13N, ilguma: 081-45-13W, Aukštis: 1 m

Dabartinis oras

Ataskaita buvo paskelbta 21 minutes, ne 13:53 UTC
Vėjas 10 kt iš Šiaurės Rytų su gūsio iki 17 kt
Temperatūra 23°C
Drėgmė 65%
Slėgis 1022 hPa
Matomumas: 16.1 km
Giedras dangus

METAR: KEYW 211353Z 04010G17KT 10SM CLR 23/16 A3017 RMK AO2 SLP215 T02280156

Laikas: 09:14 (14:14 UTC)

Prognozė

Ataskaita buvo paskelbta 2 valandos ir 49 minutes, ne 11:25 UTC
Prognozė galioja nuo 21 metu 12 UTC su 22 metu 12 UTC
Vėjas 11 kt iš Šiaurės Rytų su gūsio iki 18 kt
Matomumas: 10 km
Giedras dangus
Nuo 21 metu 2200 UTC
Vėjas 11 kt iš Rytų
Matomumas: 10 km
Išsisklaidę debesys ne aukštis 4000 ft

TAF: KEYW 211125Z 2112/2212 04011G18KT P6SM SKC FM212200 08011KT P6SM SCT040

Orai ataskaitas ir orų prognozės (METAR, TAF).

turimą stotys yra geltonos ir raudonos taškus žemėlapyje.

Perkelti pele per norėdami pamatyti stoties vardą.

Tada spustelėkite, norėdami matyti oro stebėjimo ir prognozės.

Norėdami pakeisti žemėlapį: spustelėkite ant žalios mygtukų su juodo kryžiaus žemyn,; žalią mygtuką su brūkšneliu, jei norite nutolinti; arba žalių rodyklių gretimoms žemėlapius.


METAR-TAF: